Terminal Aerodrome Forecast
Issued by NWS

Home | Current Version | Previous Version | Text Only | Print | Product List | Glossary On
Versions: 1 2 3 4 5 6 7 8 9 10 11 12 13 14 15 16 17 18 19 20 21 22 23 24 25 26 27 28 29
000
FTUS44 KOUN 280937 AAA
TAFCSM
TAF AMD
KCSM 280937Z 2810/2906 18014KT P6SM VCSH BKN120
     FM281700 19010G20KT P6SM SCT050 BKN100 PROB30 2820/2902 5SM
      TSRA BKN030CB=

USA.gov is the U.S. government's official web portal to all federal, state and local government web resources and services.